createdAt,value
2023-02-02T00:01:52.291Z,0.80
2023-02-02T00:04:21.739Z,0.75
2023-02-02T00:06:50.620Z,0.73
2023-02-02T00:09:19.833Z,0.60
2023-02-02T00:11:51.606Z,0.70
2023-02-02T00:14:23.302Z,0.80
2023-02-02T00:16:52.823Z,0.80
2023-02-02T00:19:22.507Z,0.75
2023-02-02T00:21:51.476Z,0.73
2023-02-02T00:24:20.424Z,0.80
2023-02-02T00:26:51.510Z,0.60
2023-02-02T00:29:22.561Z,0.68
2023-02-02T00:31:51.506Z,0.70
2023-02-02T00:34:20.587Z,0.90
2023-02-02T00:36:51.887Z,0.68
2023-02-02T00:39:22.391Z,0.80
2023-02-02T00:41:52.962Z,0.70
2023-02-02T00:44:39.005Z,0.77
2023-02-02T00:47:07.867Z,0.60
2023-02-02T00:49:36.664Z,0.60
2023-02-02T00:52:12.665Z,0.60
2023-02-02T00:54:41.857Z,0.55
2023-02-02T00:57:14.551Z,0.70
2023-02-02T00:59:43.198Z,0.60
2023-02-02T01:02:12.213Z,0.60
2023-02-02T01:04:40.964Z,0.50
2023-02-02T01:07:10.176Z,0.80
2023-02-02T01:09:38.800Z,0.70
2023-02-02T01:12:07.780Z,0.50
2023-02-02T01:14:37.855Z,0.60
2023-02-02T01:17:06.602Z,0.63
2023-02-02T01:19:35.390Z,0.60
2023-02-02T01:22:04.154Z,0.60
2023-02-02T01:24:32.851Z,0.63
2023-02-02T01:27:01.745Z,0.70
2023-02-02T01:29:30.442Z,0.43
2023-02-02T01:32:00.646Z,0.80
2023-02-02T01:34:29.360Z,0.65
2023-02-02T01:36:58.110Z,0.60
2023-02-02T01:39:26.865Z,0.70
2023-02-02T01:41:57.604Z,0.88
2023-02-02T01:44:44.944Z,0.70
2023-02-02T01:47:15.070Z,0.80
2023-02-02T01:49:44.059Z,0.82
2023-02-02T01:52:14.155Z,0.85
2023-02-02T01:54:43.928Z,0.70
2023-02-02T01:57:14.962Z,0.90
2023-02-02T01:59:44.605Z,0.80
2023-02-02T02:02:13.311Z,1.20
2023-02-02T02:04:43.872Z,0.90
2023-02-02T02:07:13.259Z,0.88
2023-02-02T02:09:41.941Z,0.90
2023-02-02T02:12:14.495Z,0.82
2023-02-02T02:15:05.312Z,1.10
2023-02-02T02:17:44.703Z,0.77
2023-02-02T02:20:47.269Z,0.70
2023-02-02T02:23:52.397Z,1.00
2023-02-02T02:26:37.656Z,0.88
2023-02-02T02:29:18.411Z,0.90
2023-02-02T02:32:17.633Z,0.90
2023-02-02T02:34:51.175Z,0.70
2023-02-02T02:37:25.999Z,0.77
2023-02-02T02:39:57.172Z,0.80
2023-02-02T02:42:27.760Z,0.80
2023-02-02T02:44:57.237Z,0.70
2023-02-02T02:47:28.559Z,0.70
2023-02-02T02:49:58.705Z,0.75
2023-02-02T02:52:27.284Z,0.70
2023-02-02T02:54:56.714Z,0.60
2023-02-02T02:57:34.257Z,0.77
2023-02-02T03:00:11.744Z,0.60
2023-02-02T03:02:44.433Z,0.55
2023-02-02T03:05:25.727Z,0.60
2023-02-02T03:07:58.601Z,0.57
2023-02-02T03:10:29.845Z,0.60
2023-02-02T03:12:58.580Z,0.60
2023-02-02T03:15:27.415Z,0.52
2023-02-02T03:17:56.204Z,0.80
2023-02-02T03:20:26.190Z,0.60
2023-02-02T03:22:54.879Z,0.65
2023-02-02T03:25:25.097Z,0.57
2023-02-02T03:27:54.662Z,0.70
2023-02-02T03:30:24.165Z,0.68
2023-02-02T03:32:54.132Z,0.57
2023-02-02T03:35:23.325Z,0.50
2023-02-02T03:37:53.629Z,0.65
2023-02-02T03:40:22.272Z,0.70
2023-02-02T03:42:52.012Z,0.52
2023-02-02T03:45:20.801Z,0.50
2023-02-02T03:47:49.601Z,0.70
2023-02-02T03:50:18.656Z,0.60
2023-02-02T03:52:47.409Z,0.60
2023-02-02T03:55:17.438Z,0.60
2023-02-02T03:57:46.230Z,0.50
2023-02-02T04:00:15.303Z,0.63
2023-02-02T04:02:44.123Z,0.50
2023-02-02T04:05:12.727Z,0.60
2023-02-02T04:07:41.476Z,0.60
2023-02-02T04:10:10.601Z,0.60
2023-02-02T04:12:40.665Z,0.60
2023-02-02T04:15:22.698Z,0.50
2023-02-02T04:17:51.581Z,0.60
2023-02-02T04:20:23.368Z,0.70
2023-02-02T04:22:52.005Z,0.73
2023-02-02T04:25:21.564Z,0.90
2023-02-02T04:27:51.724Z,0.70
2023-02-02T04:30:21.090Z,0.77
2023-02-02T04:32:49.809Z,0.75
2023-02-02T04:35:18.651Z,1.00
2023-02-02T04:37:54.848Z,0.70
2023-02-02T04:40:23.569Z,0.90
2023-02-02T04:42:53.568Z,0.65
2023-02-02T04:45:22.514Z,0.90
2023-02-02T04:47:51.265Z,1.00
2023-02-02T04:50:19.877Z,1.10
2023-02-02T04:52:48.597Z,0.82
2023-02-02T04:55:17.393Z,1.10
2023-02-02T04:57:45.993Z,1.00
2023-02-02T05:00:16.964Z,1.13
2023-02-02T05:02:45.712Z,0.90
2023-02-02T05:05:16.777Z,1.20
2023-02-02T05:07:45.484Z,1.13
2023-02-02T05:10:14.478Z,1.20
2023-02-02T05:12:43.256Z,0.77
2023-02-02T05:15:12.572Z,1.05
2023-02-02T05:17:44.203Z,1.27
2023-02-02T05:20:13.542Z,1.23
2023-02-02T05:22:42.763Z,1.10
2023-02-02T05:25:19.382Z,1.08
2023-02-02T05:27:48.624Z,0.70
2023-02-02T05:30:17.739Z,0.98
2023-02-02T05:32:47.770Z,0.80
2023-02-02T05:35:16.612Z,1.05
2023-02-02T05:37:45.519Z,1.20
2023-02-02T05:40:14.318Z,1.05
2023-02-02T05:42:42.978Z,1.20
2023-02-02T05:45:12.353Z,1.00
2023-02-02T05:47:40.924Z,1.10
2023-02-02T05:50:11.630Z,1.20
2023-02-02T05:52:42.335Z,1.10
2023-02-02T05:55:11.975Z,1.08
2023-02-02T05:57:40.542Z,1.10
2023-02-02T06:00:09.737Z,1.17
2023-02-02T06:02:41.193Z,1.25
2023-02-02T06:05:13.972Z,1.00
2023-02-02T06:07:42.573Z,1.00
2023-02-02T06:10:11.721Z,1.00
2023-02-02T06:12:40.656Z,1.05
2023-02-02T06:15:09.941Z,0.98
2023-02-02T06:17:38.939Z,1.02
2023-02-02T06:20:08.050Z,1.20
2023-02-02T06:22:38.130Z,1.00
2023-02-02T06:25:08.017Z,1.20
2023-02-02T06:27:36.720Z,1.00
2023-02-02T06:30:05.536Z,0.90
2023-02-02T06:32:34.305Z,1.02
2023-02-02T06:35:02.881Z,1.20
2023-02-02T06:37:31.544Z,1.00
2023-02-02T06:40:01.715Z,0.95
2023-02-02T06:42:30.691Z,1.10
2023-02-02T06:45:13.648Z,1.00
2023-02-02T06:47:42.305Z,1.20
2023-02-02T06:50:11.889Z,1.00
2023-02-02T06:52:40.595Z,1.67
2023-02-02T06:55:11.009Z,1.10
2023-02-02T06:57:39.664Z,1.00
2023-02-02T07:00:09.017Z,0.90
2023-02-02T07:02:37.852Z,0.93
2023-02-02T07:05:07.018Z,1.08
2023-02-02T07:07:36.241Z,1.13
2023-02-02T07:10:04.953Z,1.25
2023-02-02T07:12:34.997Z,1.30
2023-02-02T07:15:03.908Z,0.90
2023-02-02T07:17:32.585Z,1.15
2023-02-02T07:20:01.274Z,0.88
2023-02-02T07:22:29.934Z,0.90
2023-02-02T07:24:58.603Z,1.25
2023-02-02T07:27:27.319Z,1.33
2023-02-02T07:29:57.353Z,1.20
2023-02-02T07:32:26.113Z,1.20
2023-02-02T07:34:56.795Z,1.30
2023-02-02T07:37:25.461Z,1.33
2023-02-02T07:39:54.155Z,1.00
2023-02-02T07:42:22.800Z,1.00
2023-02-02T07:44:51.944Z,1.30
2023-02-02T07:47:23.827Z,1.30
2023-02-02T07:49:52.648Z,1.23
2023-02-02T07:52:21.241Z,1.27
2023-02-02T07:54:49.922Z,1.13
2023-02-02T07:57:18.841Z,1.23
2023-02-02T07:59:47.623Z,1.30
2023-02-02T08:02:16.297Z,1.00
2023-02-02T08:04:47.451Z,1.20
2023-02-02T08:07:16.161Z,1.60
2023-02-02T08:09:48.496Z,1.35
2023-02-02T08:12:17.258Z,1.30
2023-02-02T08:14:45.990Z,1.35
2023-02-02T08:17:14.792Z,1.30
2023-02-02T08:19:43.597Z,1.10
2023-02-02T08:22:13.646Z,1.20
2023-02-02T08:24:43.015Z,1.38
2023-02-02T08:27:12.008Z,1.40
2023-02-02T08:29:41.233Z,1.20
2023-02-02T08:32:09.915Z,1.40
2023-02-02T08:34:38.575Z,1.10
2023-02-02T08:37:07.177Z,1.25
2023-02-02T08:39:37.348Z,1.08
2023-02-02T08:42:05.919Z,1.30
2023-02-02T08:46:00.315Z,1.10
2023-02-02T08:47:23.162Z,1.10
2023-02-02T08:49:52.057Z,1.00
2023-02-02T08:52:20.753Z,1.10
2023-02-02T08:54:50.814Z,1.20
2023-02-02T08:57:19.635Z,0.80
2023-02-02T08:59:48.340Z,1.20
2023-02-02T09:02:17.994Z,1.00
2023-02-02T09:04:48.498Z,1.13
2023-02-02T09:07:17.222Z,1.10
2023-02-02T09:09:45.838Z,1.15
2023-02-02T09:12:15.906Z,1.20
2023-02-02T09:14:44.545Z,1.00
2023-02-02T09:17:13.236Z,0.98
2023-02-02T09:19:45.024Z,1.23
2023-02-02T09:22:14.119Z,1.13
2023-02-02T09:24:45.156Z,1.08
2023-02-02T09:27:13.834Z,1.00
2023-02-02T09:29:44.010Z,1.10
2023-02-02T09:32:12.851Z,1.27
2023-02-02T09:34:42.175Z,1.25
2023-02-02T09:37:10.911Z,1.00
2023-02-02T09:39:42.428Z,1.27
2023-02-02T09:42:29.252Z,1.15
2023-02-02T09:45:05.212Z,1.30
2023-02-02T09:47:50.885Z,1.10
2023-02-02T09:50:22.564Z,1.17
2023-02-02T09:52:57.397Z,1.10
2023-02-02T09:55:35.011Z,1.00
2023-02-02T09:58:07.649Z,0.93
2023-02-02T10:00:39.385Z,0.80
2023-02-02T10:03:12.713Z,1.13
2023-02-02T10:05:45.885Z,1.25
2023-02-02T10:08:34.069Z,1.10
2023-02-02T10:11:07.413Z,1.00
2023-02-02T10:13:37.974Z,1.15
2023-02-02T10:16:09.391Z,1.00
2023-02-02T10:18:40.849Z,1.20
2023-02-02T10:21:12.791Z,1.20
2023-02-02T10:23:42.330Z,1.45
2023-02-02T10:26:19.959Z,1.10
2023-02-02T10:29:01.677Z,1.08
2023-02-02T10:31:37.380Z,1.02
2023-02-02T10:34:10.569Z,0.93
2023-02-02T10:36:47.534Z,0.90
2023-02-02T10:39:22.182Z,1.00
2023-02-02T10:41:55.532Z,1.17
2023-02-02T10:44:28.733Z,1.08
2023-02-02T10:46:59.874Z,1.00
2023-02-02T10:49:31.309Z,0.90
2023-02-02T10:52:03.959Z,1.00
2023-02-02T10:54:54.979Z,0.82
2023-02-02T10:57:28.450Z,1.10
2023-02-02T11:00:00.885Z,1.10
2023-02-02T11:02:30.888Z,0.85
2023-02-02T11:05:17.057Z,0.85
2023-02-02T11:07:45.849Z,1.00
2023-02-02T11:10:14.589Z,1.20
2023-02-02T11:12:45.247Z,0.80
2023-02-02T11:15:26.164Z,1.02
2023-02-02T11:17:56.367Z,0.90
2023-02-02T11:20:26.880Z,1.00
2023-02-02T11:23:02.403Z,0.80
2023-02-02T11:25:34.043Z,0.75
2023-02-02T11:28:03.813Z,1.10
2023-02-02T11:30:35.456Z,0.70
2023-02-02T11:33:20.813Z,0.73
2023-02-02T11:35:54.922Z,0.63
2023-02-02T11:38:23.689Z,0.88
2023-02-02T11:40:56.331Z,0.60
2023-02-02T11:43:28.374Z,0.80
2023-02-02T11:46:00.258Z,0.68
2023-02-02T11:48:33.953Z,0.63
2023-02-02T11:51:03.039Z,0.70
2023-02-02T11:53:33.612Z,0.73
2023-02-02T11:56:04.202Z,0.70
2023-02-02T11:58:50.209Z,0.70
2023-02-02T12:01:25.102Z,0.63
2023-02-02T12:03:55.971Z,0.60
2023-02-02T12:06:25.488Z,0.70
2023-02-02T12:08:57.046Z,0.50
2023-02-02T12:11:38.317Z,0.82
2023-02-02T12:14:12.987Z,0.70
2023-02-02T12:16:53.480Z,0.80
2023-02-02T12:19:33.193Z,0.70
2023-02-02T12:22:04.835Z,1.08
2023-02-02T12:24:36.226Z,0.60
2023-02-02T12:27:11.560Z,0.80
2023-02-02T12:29:48.854Z,0.60
2023-02-02T12:32:25.696Z,0.90
2023-02-02T12:35:01.731Z,0.60
2023-02-02T12:37:39.658Z,0.70
2023-02-02T12:40:20.485Z,0.70
2023-02-02T12:42:54.349Z,0.60
2023-02-02T12:45:29.425Z,0.77
2023-02-02T12:48:04.217Z,1.00
2023-02-02T12:50:39.061Z,0.70
2023-02-02T12:53:15.556Z,0.82
2023-02-02T12:55:45.547Z,0.60
2023-02-02T12:58:18.818Z,0.60
2023-02-02T13:00:52.641Z,0.82
2023-02-02T13:03:29.623Z,0.70
2023-02-02T13:06:07.030Z,0.60
2023-02-02T13:08:40.170Z,0.75
2023-02-02T13:11:29.978Z,0.60
2023-02-02T13:14:00.394Z,0.60
2023-02-02T13:16:30.433Z,0.80
2023-02-02T13:19:02.074Z,0.55
2023-02-02T13:21:32.625Z,0.60
2023-02-02T13:24:06.777Z,0.90
2023-02-02T13:26:38.910Z,0.63
2023-02-02T13:29:09.457Z,0.52
2023-02-02T13:31:42.671Z,0.60
2023-02-02T13:34:17.542Z,0.50
2023-02-02T13:36:50.771Z,0.70
2023-02-02T13:39:21.526Z,0.65
2023-02-02T13:41:51.446Z,0.60
2023-02-02T13:44:22.125Z,0.70
2023-02-02T13:46:53.577Z,0.73
2023-02-02T13:49:25.432Z,0.75
2023-02-02T13:51:58.913Z,0.50
2023-02-02T13:54:45.897Z,0.80
2023-02-02T13:57:20.860Z,0.80
2023-02-02T14:00:01.362Z,0.70
2023-02-02T14:02:35.409Z,0.73
2023-02-02T14:05:05.752Z,0.73
2023-02-02T14:07:41.694Z,0.68
2023-02-02T14:10:23.581Z,0.50
2023-02-02T14:12:52.723Z,0.73
2023-02-02T14:15:23.960Z,0.75
2023-02-02T14:17:57.067Z,0.77
2023-02-02T14:20:42.104Z,0.75
2023-02-02T14:23:29.581Z,0.60
2023-02-02T14:26:10.254Z,0.70
2023-02-02T14:28:49.316Z,0.65
2023-02-02T14:31:20.063Z,0.68
2023-02-02T14:33:50.736Z,0.95
2023-02-02T14:36:20.608Z,0.75
2023-02-02T14:39:13.637Z,0.70
2023-02-02T14:42:16.204Z,0.80
2023-02-02T14:44:59.733Z,0.70
2023-02-02T14:47:48.161Z,0.70
2023-02-02T14:50:18.753Z,0.55
2023-02-02T14:52:47.525Z,0.77
2023-02-02T14:55:20.157Z,1.35
2023-02-02T14:57:57.118Z,0.70
2023-02-02T15:00:26.869Z,0.70
2023-02-02T15:02:55.536Z,0.98
2023-02-02T15:05:40.353Z,0.70
2023-02-02T15:08:10.266Z,0.60
2023-02-02T15:11:02.298Z,0.70
2023-02-02T15:13:37.589Z,0.85
2023-02-02T15:16:14.176Z,0.70
2023-02-02T15:18:46.249Z,0.50
2023-02-02T15:21:18.517Z,0.82
2023-02-02T15:23:48.344Z,0.90
2023-02-02T15:26:19.476Z,1.13
2023-02-02T15:28:53.470Z,0.80
2023-02-02T15:31:29.127Z,1.00
2023-02-02T15:34:01.209Z,0.88
2023-02-02T15:36:31.297Z,0.90
2023-02-02T15:39:01.627Z,1.00
2023-02-02T15:41:33.457Z,1.15
2023-02-02T15:44:03.895Z,0.93
2023-02-02T15:46:35.709Z,1.30
2023-02-02T15:49:32.908Z,1.48
2023-02-02T15:52:05.251Z,1.65
2023-02-02T15:54:35.312Z,1.45
2023-02-02T15:57:04.816Z,1.50
2023-02-02T15:59:42.892Z,1.65
2023-02-02T16:02:19.920Z,1.42
2023-02-02T16:04:48.760Z,1.20
2023-02-02T16:07:19.069Z,1.20
2023-02-02T16:09:47.974Z,1.20
2023-02-02T16:12:29.957Z,1.70
2023-02-02T16:15:00.020Z,1.20
2023-02-02T16:17:30.091Z,0.95
2023-02-02T16:20:00.672Z,1.08
2023-02-02T16:22:31.272Z,1.17
2023-02-02T16:25:01.419Z,0.85
2023-02-02T16:27:31.745Z,1.10
2023-02-02T16:30:03.311Z,1.17
2023-02-02T16:32:35.687Z,1.15
2023-02-02T16:35:05.852Z,1.13
2023-02-02T16:37:36.474Z,1.08
2023-02-02T16:40:17.969Z,0.80
2023-02-02T16:42:47.015Z,1.45
2023-02-02T16:45:37.000Z,1.10
2023-02-02T16:48:22.120Z,1.48
2023-02-02T16:51:04.310Z,1.20
2023-02-02T16:53:33.620Z,1.42
2023-02-02T16:56:02.507Z,1.13
2023-02-02T16:58:31.700Z,1.40
2023-02-02T17:01:19.390Z,1.17
2023-02-02T17:03:51.446Z,1.25
2023-02-02T17:06:28.507Z,0.98
2023-02-02T17:09:15.133Z,1.27
2023-02-02T17:11:56.880Z,1.25
2023-02-02T17:14:28.858Z,1.30
2023-02-02T17:16:59.041Z,2.08
2023-02-02T17:19:30.515Z,1.67
2023-02-02T17:22:00.149Z,1.30
2023-02-02T17:24:29.161Z,1.70
2023-02-02T17:26:58.097Z,1.55
2023-02-02T17:29:26.791Z,1.38
2023-02-02T17:31:56.762Z,1.38
2023-02-02T17:34:27.000Z,1.77
2023-02-02T17:36:55.647Z,1.58
2023-02-02T17:39:24.493Z,1.50
2023-02-02T17:41:53.422Z,1.60
2023-02-02T17:44:22.156Z,1.58
2023-02-02T17:46:51.001Z,1.85
2023-02-02T17:49:20.473Z,1.90
2023-02-02T17:51:50.839Z,1.88
2023-02-02T17:54:19.877Z,1.70
2023-02-02T17:56:48.648Z,2.17
2023-02-02T17:59:17.339Z,1.88
2023-02-02T18:01:46.003Z,1.58
2023-02-02T18:04:15.423Z,1.55
2023-02-02T18:06:44.102Z,1.40
2023-02-02T18:09:14.382Z,1.52
2023-02-02T18:11:45.582Z,1.73
2023-02-02T18:14:14.429Z,1.60
2023-02-02T18:16:43.190Z,1.55
2023-02-02T18:19:12.007Z,1.45
2023-02-02T18:21:40.598Z,1.52
2023-02-02T18:24:10.497Z,1.63
2023-02-02T18:26:40.636Z,1.73
2023-02-02T18:29:09.347Z,1.60
2023-02-02T18:31:40.605Z,2.90
2023-02-02T18:34:10.966Z,1.95
2023-02-02T18:36:40.480Z,2.10
2023-02-02T18:39:09.957Z,2.17
2023-02-02T18:41:40.476Z,2.22
2023-02-02T18:44:09.232Z,1.65
2023-02-02T18:46:38.269Z,1.92
2023-02-02T18:49:07.000Z,2.78
2023-02-02T18:51:35.928Z,3.00
2023-02-02T18:54:04.835Z,2.85
2023-02-02T18:56:33.557Z,2.38
2023-02-02T18:59:03.881Z,2.85
2023-02-02T19:01:32.783Z,2.88
2023-02-02T19:04:02.083Z,2.45
2023-02-02T19:06:48.883Z,2.60
2023-02-02T19:09:18.295Z,2.55
2023-02-02T19:11:48.031Z,4.25
2023-02-02T19:14:18.881Z,2.58
2023-02-02T19:16:48.535Z,3.08
2023-02-02T19:19:27.545Z,2.28
2023-02-02T19:21:57.302Z,3.55
2023-02-02T19:24:27.857Z,3.60
2023-02-02T19:26:56.877Z,4.45
2023-02-02T19:29:27.691Z,4.63
2023-02-02T19:32:00.723Z,4.45
2023-02-02T19:34:32.402Z,3.55
2023-02-02T19:37:01.683Z,3.30
2023-02-02T19:39:32.007Z,3.67
2023-02-02T19:42:01.438Z,3.28
2023-02-02T19:44:34.113Z,3.40
2023-02-02T19:47:02.940Z,3.83
2023-02-02T19:49:33.818Z,4.20
2023-02-02T19:52:03.910Z,3.17
2023-02-02T19:54:35.738Z,3.55
2023-02-02T19:57:09.312Z,3.28
2023-02-02T19:59:39.487Z,3.35
2023-02-02T20:02:23.743Z,2.78
2023-02-02T20:04:55.246Z,2.55
2023-02-02T20:07:23.948Z,2.90
2023-02-02T20:09:52.691Z,2.85
2023-02-02T20:12:25.863Z,2.13
2023-02-02T20:14:57.331Z,2.25
2023-02-02T20:17:31.952Z,3.90
2023-02-02T20:20:00.991Z,2.80
2023-02-02T20:22:31.846Z,3.30
2023-02-02T20:25:03.528Z,4.25
2023-02-02T20:27:35.281Z,3.60
2023-02-02T20:30:17.944Z,3.40
2023-02-02T20:32:46.747Z,4.60
2023-02-02T20:35:23.881Z,6.22
2023-02-02T20:37:52.869Z,5.53
2023-02-02T20:40:25.931Z,5.50
2023-02-02T20:42:54.783Z,8.70
2023-02-02T20:45:24.966Z,8.15
2023-02-02T20:47:53.754Z,5.85
2023-02-02T20:50:24.179Z,5.80
2023-02-02T20:52:54.091Z,5.00
2023-02-02T20:55:22.833Z,5.20
2023-02-02T20:57:51.824Z,5.32
2023-02-02T21:00:23.794Z,4.78
2023-02-02T21:02:55.326Z,5.30
2023-02-02T21:05:25.737Z,5.30
2023-02-02T21:07:55.585Z,4.95
2023-02-02T21:10:24.935Z,5.35
2023-02-02T21:12:53.897Z,4.45
2023-02-02T21:15:23.563Z,4.80
2023-02-02T21:17:54.314Z,4.45
2023-02-02T21:20:23.165Z,5.47
2023-02-02T21:22:56.772Z,5.63
2023-02-02T21:25:25.477Z,5.15
2023-02-02T21:28:03.131Z,4.82
2023-02-02T21:30:32.301Z,5.15
2023-02-02T21:33:02.660Z,4.90
2023-02-02T21:35:31.296Z,4.00
2023-02-02T21:38:03.682Z,4.22
2023-02-02T21:40:34.760Z,4.93
2023-02-02T21:43:08.079Z,5.10
2023-02-02T21:45:37.682Z,5.13
2023-02-02T21:48:09.435Z,4.95
2023-02-02T21:50:40.713Z,5.15
2023-02-02T21:53:21.571Z,4.50
2023-02-02T21:55:53.447Z,4.55
2023-02-02T21:58:25.130Z,5.30
2023-02-02T22:00:57.526Z,4.82
2023-02-02T22:03:32.856Z,4.93
2023-02-02T22:06:04.237Z,5.25
2023-02-02T22:08:35.099Z,5.15
2023-02-02T22:11:03.763Z,5.95
2023-02-02T22:13:35.547Z,6.65
2023-02-02T22:16:04.388Z,6.45
2023-02-02T22:18:34.632Z,5.55
2023-02-02T22:21:03.331Z,5.45
2023-02-02T22:23:32.220Z,5.55
2023-02-02T22:26:00.939Z,6.00
2023-02-02T22:28:32.245Z,5.93
2023-02-02T22:31:01.071Z,5.47
2023-02-02T22:33:29.906Z,5.75
2023-02-02T22:36:09.952Z,5.93
2023-02-02T22:38:38.600Z,6.28
2023-02-02T22:41:09.133Z,5.38
2023-02-02T22:43:37.874Z,5.82
2023-02-02T22:46:07.124Z,5.72
2023-02-02T22:48:35.851Z,5.57
2023-02-02T22:51:05.892Z,5.50
2023-02-02T22:53:34.791Z,5.78
2023-02-02T22:56:03.525Z,5.45
2023-02-02T22:58:32.204Z,5.68
2023-02-02T23:01:01.279Z,6.15
2023-02-02T23:03:29.996Z,6.80
2023-02-02T23:05:58.865Z,5.53
2023-02-02T23:08:28.930Z,6.53
2023-02-02T23:10:57.806Z,5.80
2023-02-02T23:13:26.430Z,5.47
2023-02-02T23:15:56.755Z,5.80
2023-02-02T23:18:25.458Z,6.38
2023-02-02T23:20:54.115Z,5.97
2023-02-02T23:23:23.301Z,6.43
2023-02-02T23:25:53.472Z,5.70
2023-02-02T23:28:22.138Z,6.00
2023-02-02T23:30:51.069Z,6.18
2023-02-02T23:33:22.398Z,6.57
2023-02-02T23:35:53.279Z,6.10
2023-02-02T23:38:21.965Z,6.63
2023-02-02T23:40:50.739Z,5.47
2023-02-02T23:43:20.714Z,5.68
2023-02-02T23:45:51.289Z,5.75
2023-02-02T23:48:20.184Z,5.88
2023-02-02T23:50:49.387Z,5.50
2023-02-02T23:53:18.529Z,5.70
2023-02-02T23:55:47.514Z,5.53
2023-02-02T23:58:16.581Z,5.35
